(Default Airport = EGHI - Southampton International)

METAR = EGHI 212120Z VRB02KT 9999 FEW026 12/11 Q1015

STATION........ EGHI
OBSERVED....... Mon May 21, 22:20 BST
NOW............ Tue May 22, 03:33 BST
AGE............ 5:13 hr ago
WIND........... varies at 2 mph
VISIBILITY..... 16 miles
CLOUDS......... partly cloudy
TEMP........... 54°F (12°C)
DEWPT.......... 52°F (11°C)
HUMIDITY....... 94%
BAROMETER...... 1015 hPa (29.97 in Hg)


    Get Weather Info from Airport: